Main page
METAR-TAF:

METAR-TAF

Airports :

Lydd Airport

Lydd, England

latitude: 50-57N, longitude: 000-56E, elevation: 3 m

Current weather observation

The report was made 23 minutes ago, at 00:50 UTC
Wind 2 kt from the East/Northeast
Temperature 9°C
Humidity 93%
Pressure 997 hPa
Visibility 10 km or more

METAR: EGMD 260050Z AUTO 06002KT 9999 SCT027/// BKN043/// 09/08 Q0997

Time: 01:13 (01:13 UTC)

Forecast

The report was made 2 hours and 14 minutes ago, at 22:59 UTC
Forecast valid from 26 at 00 UTC to 26 at 09 UTC
Wind 9 kt from the Southwest
Visibility 10 km or more
Scattered clouds at a height of 2000 ft
Temporary
from 26 at 00 UTC to 26 at 09 UTC
Visibility: 7000 m
rain showers
Probability 30% :
Temporary
from 26 at 00 UTC to 26 at 09 UTC
Wind 15 kt from the West/Southwest with gusts up to 25 kt
Visibility: 3000 m
thunderstorm, heavy rain

TAF: EGMD 252259Z 2600/2609 22009KT 9999 SCT020 TEMPO 2600/2609 7000 SHRA PROB30 TEMPO 2600/2609 24015G25KT 3000 +TSRA

Weather observations and forecasts of more than 4000 airports (METAR and TAF reports).

The available stations are represented by yellow and red dots on the map.

Hover mouse over dot to see the name of the station.

Then click to see weather observations and forecasts.

To change the map : click on the green buttons with a black cross to zoom in, on the green button with a dash to zoom out, or on the green arrows for adjacent maps.


METAR-TAF: